Time;durP1;ratioP1;P1;durP2;ratioP2;P2;SDS_P1;SDS_P2;PMS_P1;PMS_P2;Temp;Humidity;BMP_temperature;BMP_pressure;BME280_temperature;BME280_humidity;BME280_pressure;Samples;Min_cycle;Max_cycle;Signal;HPM_P1;HPM_P2
2020/12/03 00:00:57;;;;;;;60.23;33.37;;;;;;;0.08;92.13;100046.06;2037688;29;20106;-60
2020/12/03 00:02:00;;;;;;;60.13;34.10;;;;;;;0.09;92.39;100028.16;2036966;28;20042;-60
2020/12/03 00:03:04;;;;;;;57.45;32.78;;;;;;;0.12;92.50;100035.00;2032694;29;20036;-60
2020/12/03 00:04:05;;;;;;;53.15;31.25;;;;;;;0.13;92.25;100039.28;2036251;29;20020;-60
2020/12/03 00:05:06;;;;;;;55.25;32.70;;;;;;;0.13;92.38;100035.00;2037212;29;20030;-60
2020/12/03 00:06:20;;;;;;;52.80;31.97;;;;;;;0.16;92.51;100029.03;2036900;29;20047;-60
2020/12/03 00:07:23;;;;;;;56.63;31.83;;;;;;;0.19;92.65;100028.25;2037523;29;20097;-61
2020/12/03 00:08:24;;;;;;;57.20;31.10;;;;;;;0.22;92.57;100025.69;2033797;28;20075;-60
2020/12/03 00:09:24;;;;;;;55.75;32.03;;;;;;;0.22;92.49;100029.13;2031929;28;20036;-61
2020/12/03 00:10:25;;;;;;;49.43;30.00;;;;;;;0.21;92.16;100026.53;2036922;28;20027;-61
2020/12/03 00:11:29;;;;;;;54.70;31.73;;;;;;;0.21;92.08;100029.09;2036744;29;20511;-60
2020/12/03 00:12:30;;;;;;;51.53;30.02;;;;;;;0.23;92.10;100020.59;2036993;29;20046;-61
2020/12/03 00:13:31;;;;;;;51.83;30.43;;;;;;;0.22;92.00;100024.00;2037354;29;20038;-61
2020/12/03 00:14:32;;;;;;;46.30;27.98;;;;;;;0.21;92.03;100017.16;2037135;28;20380;-61
2020/12/03 00:15:32;;;;;;;46.17;28.07;;;;;;;0.19;91.90;100016.28;2037774;28;20040;-60
2020/12/03 00:16:34;;;;;;;48.20;28.53;;;;;;;0.20;92.02;100014.56;2037409;29;20039;-61
2020/12/03 00:17:34;;;;;;;46.80;28.30;;;;;;;0.17;92.06;100012.81;2037428;29;20066;-61
2020/12/03 00:18:36;;;;;;;43.70;27.40;;;;;;;0.17;92.30;100009.41;2037385;28;20036;-61
2020/12/03 00:19:37;;;;;;;46.50;28.75;;;;;;;0.11;92.16;99997.41;2036895;29;20099;-61
2020/12/03 00:20:37;;;;;;;45.07;27.30;;;;;;;0.12;92.37;100004.25;2036813;29;20027;-60
2020/12/03 00:21:47;;;;;;;45.27;27.53;;;;;;;0.09;92.04;100001.66;2037390;29;20037;-60
2020/12/03 00:22:47;;;;;;;45.45;26.85;;;;;;;0.11;92.28;100000.81;2036632;28;20020;-60
2020/12/03 00:23:48;;;;;;;45.77;27.80;;;;;;;0.09;92.29;99996.53;2037649;29;20388;-60
2020/12/03 00:24:48;;;;;;;43.57;25.90;;;;;;;0.10;92.29;99991.41;2036430;28;20026;-61
2020/12/03 00:25:50;;;;;;;41.03;25.63;;;;;;;0.10;92.15;99996.53;2036517;28;20135;-61
2020/12/03 00:26:51;;;;;;;43.53;25.65;;;;;;;0.09;92.27;99996.53;2038508;29;20682;-60
2020/12/03 00:27:54;;;;;;;47.37;27.73;;;;;;;0.05;92.34;99987.94;2038016;29;20038;-61
2020/12/03 00:28:54;;;;;;;47.33;27.13;;;;;;;0.08;92.38;99994.81;2037914;28;20058;-60
2020/12/03 00:29:54;;;;;;;40.50;25.37;;;;;;;0.05;92.35;99987.94;2038272;29;20511;-61
2020/12/03 00:30:54;;;;;;;41.27;25.80;;;;;;;0.07;92.31;99987.97;2038835;28;20035;-60
2020/12/03 00:31:55;;;;;;;45.03;26.60;;;;;;;0.06;92.35;99986.22;2039050;28;20035;-61
2020/12/03 00:32:55;;;;;;;42.50;25.63;;;;;;;0.09;92.18;99988.84;2038470;28;20052;-61
2020/12/03 00:33:56;;;;;;;42.63;26.40;;;;;;;0.07;92.34;99985.41;2039377;29;20094;-61
2020/12/03 00:34:56;;;;;;;43.57;26.77;;;;;;;0.04;92.65;99987.94;2038330;28;20472;-60
2020/12/03 00:35:57;;;;;;;46.03;27.07;;;;;;;0.05;92.57;99984.53;2042666;28;20035;-60
2020/12/03 00:36:57;;;;;;;47.55;27.63;;;;;;;0.03;92.41;99986.22;2030340;29;20524;-61
2020/12/03 00:37:58;;;;;;;44.73;27.07;;;;;;;0.02;92.61;99981.94;2037801;28;20039;-61
2020/12/03 00:38:58;;;;;;;43.93;26.10;;;;;;;0.03;92.59;99981.94;2039001;28;20027;-61
2020/12/03 00:39:59;;;;;;;42.47;25.87;;;;;;;0.01;92.46;99977.66;2038780;29;20032;-60
2020/12/03 00:41:00;;;;;;;43.70;27.00;;;;;;;-0.02;92.54;99974.22;2039432;29;20023;-61
2020/12/03 00:42:00;;;;;;;46.77;26.17;;;;;;;0.00;92.82;99974.25;2038234;29;20491;-60
2020/12/03 00:43:00;;;;;;;50.43;28.40;;;;;;;0.01;92.84;99978.50;2038171;29;20118;-60
2020/12/03 00:44:00;;;;;;;44.90;27.63;;;;;;;-0.05;92.79;99973.34;2039019;29;20059;-61
2020/12/03 00:45:01;;;;;;;43.53;25.63;;;;;;;-0.02;92.91;99973.38;2039260;29;20059;-60
2020/12/03 00:46:01;;;;;;;44.53;27.00;;;;;;;-0.01;93.04;99968.25;2039160;28;20055;-61
2020/12/03 00:47:02;;;;;;;45.43;27.80;;;;;;;-0.04;92.92;99968.22;2039053;29;20034;-61
2020/12/03 00:48:03;;;;;;;45.22;27.27;;;;;;;-0.02;93.10;99963.97;2039086;29;20035;-61
2020/12/03 00:49:03;;;;;;;44.67;26.27;;;;;;;-0.02;92.75;99963.97;2039346;29;20082;-61
2020/12/03 00:50:06;;;;;;;47.77;27.30;;;;;;;-0.02;92.97;99968.25;2039223;28;20063;-61
2020/12/03 00:51:11;;;;;;;39.75;24.73;;;;;;;-0.04;92.91;99959.69;2039355;29;20024;-61
2020/12/03 00:52:11;;;;;;;46.85;27.90;;;;;;;-0.07;93.11;99955.41;2038540;28;20020;-61
2020/12/03 00:53:12;;;;;;;41.53;26.07;;;;;;;-0.08;92.84;99956.25;2039229;29;20480;-60
2020/12/03 00:54:13;;;;;;;43.85;25.55;;;;;;;-0.11;92.95;99951.06;2039120;28;20035;-61
2020/12/03 00:55:13;;;;;;;41.10;23.87;;;;;;;-0.11;92.96;99948.50;2039186;29;20659;-60
2020/12/03 00:56:14;;;;;;;38.90;23.45;;;;;;;-0.12;92.96;99949.34;2038346;29;20058;-61
2020/12/03 00:57:14;;;;;;;43.10;25.90;;;;;;;-0.13;93.24;99942.50;2079758;28;20632;-61
2020/12/03 00:58:15;;;;;;;45.13;25.00;;;;;;;-0.08;93.32;99946.00;2080320;28;20030;-60
2020/12/03 00:59:15;;;;;;;41.00;25.15;;;;;;;-0.12;93.23;99941.66;2039540;29;20106;-61
2020/12/03 01:00:19;;;;;;;44.50;25.80;;;;;;;-0.12;93.27;99943.38;2039493;29;20383;-61
2020/12/03 01:01:20;;;;;;;38.55;23.08;;;;;;;-0.09;93.41;99933.16;2039056;28;20665;-61
2020/12/03 01:02:21;;;;;;;37.28;22.98;;;;;;;-0.07;93.19;99942.59;2039157;28;20050;-61
2020/12/03 01:03:21;;;;;;;38.93;23.67;;;;;;;-0.07;93.27;99944.28;2038953;28;20058;-60
2020/12/03 01:04:21;;;;;;;42.97;25.43;;;;;;;-0.09;93.47;99940.84;2038942;28;20672;-61
2020/12/03 01:05:22;;;;;;;39.40;24.47;;;;;;;-0.11;93.73;99940.84;2038346;29;20027;-60
2020/12/03 01:06:22;;;;;;;38.70;22.77;;;;;;;-0.07;93.69;99947.72;2038404;28;20487;-60
2020/12/03 01:07:22;;;;;;;40.93;23.43;;;;;;;-0.08;93.41;99938.31;2038511;29;20391;-60
2020/12/03 01:08:22;;;;;;;36.57;22.73;;;;;;;-0.08;93.41;99938.31;2038614;29;20059;-60
2020/12/03 01:09:23;;;;;;;41.47;24.13;;;;;;;-0.07;93.53;99936.59;2039220;29;20056;-60
2020/12/03 01:10:29;;;;;;;44.07;23.83;;;;;;;-0.12;93.51;99936.53;2037955;29;20074;-60
2020/12/03 01:11:29;;;;;;;41.55;24.42;;;;;;;-0.12;93.46;99934.00;2038721;29;20030;-60
2020/12/03 01:12:30;;;;;;;41.67;23.20;;;;;;;-0.12;93.65;99925.47;2038265;29;20499;-60
2020/12/03 01:13:31;;;;;;;39.55;23.27;;;;;;;-0.12;93.82;99934.00;2039251;29;20508;-60
2020/12/03 01:14:34;;;;;;;41.40;24.67;;;;;;;-0.12;93.77;99934.00;2038997;28;20028;-61
2020/12/03 01:15:34;;;;;;;38.88;24.05;;;;;;;-0.11;93.96;99928.03;2039099;29;20043;-61
2020/12/03 01:16:35;;;;;;;37.33;23.40;;;;;;;-0.10;93.79;99931.47;2038882;29;20020;-60
2020/12/03 01:17:35;;;;;;;37.43;21.97;;;;;;;-0.11;93.94;99922.91;2038926;29;20074;-61
2020/12/03 01:18:35;;;;;;;37.73;22.07;;;;;;;-0.11;93.76;99916.94;2038919;29;20030;-60
2020/12/03 01:19:36;;;;;;;36.67;22.47;;;;;;;-0.03;93.34;99917.84;2031039;28;20078;-60
2020/12/03 01:20:37;;;;;;;33.13;21.40;;;;;;;-0.09;93.37;99916.09;2031338;29;20032;-60
2020/12/03 01:21:37;;;;;;;31.47;20.87;;;;;;;-0.12;93.50;99916.06;2031189;28;20055;-61
2020/12/03 01:22:38;;;;;;;36.83;21.23;;;;;;;-0.11;93.48;99917.78;2035385;29;20099;-60
2020/12/03 01:23:38;;;;;;;34.97;21.20;;;;;;;-0.11;93.40;99911.81;2038860;28;20032;-60
2020/12/03 01:24:40;;;;;;;35.33;21.77;;;;;;;-0.11;93.41;99912.66;2038907;29;20020;-60
2020/12/03 01:25:41;;;;;;;35.15;20.65;;;;;;;-0.15;93.23;99913.50;2038863;29;20052;-60
2020/12/03 01:26:41;;;;;;;34.57;20.47;;;;;;;-0.14;93.47;99914.34;2039128;29;20077;-60
2020/12/03 01:27:41;;;;;;;34.03;20.27;;;;;;;-0.14;93.35;99912.63;2038515;29;20453;-60
2020/12/03 01:28:42;;;;;;;34.83;20.43;;;;;;;-0.16;93.52;99907.50;2038585;29;20023;-61
2020/12/03 01:29:44;;;;;;;32.63;19.58;;;;;;;-0.13;93.22;99901.53;2038876;28;20024;-60
2020/12/03 01:30:45;;;;;;;32.80;20.85;;;;;;;-0.14;93.32;99901.53;2039059;29;20035;-60
2020/12/03 01:31:45;;;;;;;38.50;22.37;;;;;;;-0.17;93.33;99900.66;2038922;28;20020;-60
2020/12/03 01:32:46;;;;;;;32.22;20.02;;;;;;;-0.17;93.33;99897.25;2037548;29;20047;-60
2020/12/03 01:33:46;;;;;;;29.75;19.35;;;;;;;-0.16;93.38;99893.84;2038768;28;20037;-60
2020/12/03 01:34:47;;;;;;;31.47;19.60;;;;;;;-0.12;93.25;99890.44;2031033;29;20361;-60
2020/12/03 01:35:47;;;;;;;32.60;19.67;;;;;;;-0.13;93.19;99887.88;2030901;29;20051;-60
2020/12/03 01:36:52;;;;;;;34.17;19.83;;;;;;;-0.14;93.03;99883.59;2031212;29;20082;-60
2020/12/03 01:37:52;;;;;;;31.13;19.48;;;;;;;-0.15;93.07;99877.63;2030748;28;20640;-60
2020/12/03 01:38:53;;;;;;;33.57;19.80;;;;;;;-0.16;93.05;99883.59;2038891;29;20028;-60
2020/12/03 01:39:53;;;;;;;32.27;19.67;;;;;;;-0.16;93.43;99878.47;2038683;28;20031;-60
2020/12/03 01:40:54;;;;;;;35.53;20.83;;;;;;;-0.15;93.49;99880.19;2038749;29;20023;-60
2020/12/03 01:41:54;;;;;;;34.63;21.75;;;;;;;-0.13;93.43;99882.75;2038710;28;20131;-60
2020/12/03 01:42:55;;;;;;;32.23;19.63;;;;;;;-0.12;93.34;99879.34;2038656;28;20031;-60
2020/12/03 01:43:55;;;;;;;39.57;21.60;;;;;;;-0.14;93.59;99876.75;2038653;28;20031;-60
2020/12/03 01:44:55;;;;;;;32.75;20.95;;;;;;;-0.14;92.94;99868.22;2038913;29;20034;-60
2020/12/03 01:46:01;;;;;;;32.60;19.90;;;;;;;-0.08;92.89;99875.94;2038655;28;20063;-60
2020/12/03 01:47:02;;;;;;;32.25;19.73;;;;;;;-0.11;93.08;99871.66;2037422;29;20161;-60
2020/12/03 01:48:02;;;;;;;31.30;19.60;;;;;;;-0.08;92.97;99871.69;2036750;29;20042;-60
2020/12/03 01:49:13;;;;;;;32.23;19.83;;;;;;;-0.09;92.95;99859.72;2040012;29;20028;-60
2020/12/03 01:50:14;;;;;;;31.38;18.90;;;;;;;-0.07;93.03;99863.16;2040289;28;20173;-60
2020/12/03 01:51:27;;;;;;;31.93;19.83;;;;;;;-0.13;93.05;99857.97;2040412;29;20169;-60
2020/12/03 01:52:27;;;;;;;30.33;18.95;;;;;;;-0.11;93.06;99855.44;2039544;28;20384;-60
2020/12/03 01:53:28;;;;;;;35.20;20.47;;;;;;;-0.14;93.09;99860.53;2037953;29;20036;-60
2020/12/03 01:54:28;;;;;;;31.63;19.57;;;;;;;-0.12;93.13;99857.13;2036618;28;20054;-60
2020/12/03 01:55:28;;;;;;;29.60;18.70;;;;;;;-0.10;93.28;99859.72;2032456;29;20307;-60
2020/12/03 01:56:50;;;;;;;32.83;18.93;;;;;;;-0.09;93.13;99857.16;2032308;28;20387;-60
2020/12/03 01:58:01;;;;;;;34.55;19.40;;;;;;;-0.10;93.27;99863.13;2032319;29;20032;-60
2020/12/03 01:59:04;;;;;;;33.13;19.92;;;;;;;-0.14;93.34;99852.84;2039243;28;20032;-60
2020/12/03 02:00:08;;;;;;;32.90;20.75;;;;;;;-0.13;93.43;99850.28;2040119;29;20039;-60
2020/12/03 02:01:10;;;;;;;34.33;20.15;;;;;;;-0.12;93.36;99851.16;2040127;28;20038;-61
2020/12/03 02:02:14;;;;;;;33.28;20.23;;;;;;;-0.14;93.27;99848.56;2040069;29;20601;-60
2020/12/03 02:03:14;;;;;;;33.67;20.63;;;;;;;-0.15;93.43;99839.19;2040126;28;20555;-60
2020/12/03 02:04:15;;;;;;;35.07;20.70;;;;;;;-0.08;93.25;99845.19;2039971;29;20035;-60
2020/12/03 02:05:29;;;;;;;31.80;19.97;;;;;;;-0.14;93.32;99829.81;2040038;28;20028;-60
2020/12/03 02:06:33;;;;;;;35.45;21.55;;;;;;;-0.14;93.49;99840.88;2040147;29;20027;-60
2020/12/03 02:07:33;;;;;;;32.40;20.13;;;;;;;-0.11;93.61;99835.78;2040212;28;20036;-60
2020/12/03 02:08:33;;;;;;;34.40;20.43;;;;;;;-0.12;93.59;99831.50;2040085;28;20028;-60
2020/12/03 02:09:34;;;;;;;33.27;20.17;;;;;;;-0.14;93.45;99834.91;2036802;29;20479;-60
2020/12/03 02:10:34;;;;;;;34.53;20.67;;;;;;;-0.14;93.17;99832.34;2032303;29;20109;-60
2020/12/03 02:11:35;;;;;;;32.97;20.30;;;;;;;-0.16;93.29;99829.81;2044839;28;20026;-60
2020/12/03 02:12:36;;;;;;;33.03;21.50;;;;;;;-0.19;93.22;99828.03;2047828;28;20027;-60
2020/12/03 02:13:36;;;;;;;33.00;20.80;;;;;;;-0.18;93.32;99828.91;2048068;28;20110;-60
2020/12/03 02:14:36;;;;;;;31.23;19.10;;;;;;;-0.12;93.06;99831.50;2047983;28;20407;-61
2020/12/03 02:15:37;;;;;;;33.73;21.20;;;;;;;-0.15;92.98;99828.97;2041061;29;20547;-60
2020/12/03 02:16:40;;;;;;;33.90;21.20;;;;;;;-0.16;93.15;99824.69;2039946;29;20030;-60
2020/12/03 02:17:41;;;;;;;31.17;19.67;;;;;;;-0.16;93.22;99829.81;2039391;28;20027;-60
2020/12/03 02:18:46;;;;;;;34.05;20.85;;;;;;;-0.17;93.35;99830.63;2039480;29;20435;-60
2020/12/03 02:19:58;;;;;;;31.33;20.92;;;;;;;-0.19;93.22;99822.06;2039248;28;20024;-60
2020/12/03 02:20:58;;;;;;;31.63;19.90;;;;;;;-0.18;93.37;99811.84;2040289;29;20023;-60
2020/12/03 02:22:04;;;;;;;35.30;20.27;;;;;;;-0.13;93.34;99822.13;2039973;28;20118;-61
2020/12/03 02:23:13;;;;;;;33.42;20.27;;;;;;;-0.15;93.29;99816.16;2040068;29;20016;-60
2020/12/03 02:24:13;;;;;;;33.53;21.48;;;;;;;-0.16;93.14;99811.88;2039635;29;20059;-60
2020/12/03 02:25:14;;;;;;;35.40;21.67;;;;;;;-0.19;93.08;99809.28;2039909;29;20460;-60
2020/12/03 02:26:15;;;;;;;35.80;21.60;;;;;;;-0.13;93.23;99816.16;2040036;28;20032;-60
2020/12/03 02:27:19;;;;;;;31.33;20.60;;;;;;;-0.17;93.09;99810.16;2040205;29;20035;-60
2020/12/03 02:28:19;;;;;;;36.45;22.30;;;;;;;-0.14;93.12;99806.75;2040045;28;20027;-60
2020/12/03 02:29:21;;;;;;;36.27;22.17;;;;;;;-0.17;93.17;99812.72;2039948;29;20049;-60
2020/12/03 02:30:21;;;;;;;34.05;20.52;;;;;;;-0.19;93.51;99806.72;2040055;28;20362;-60
2020/12/03 02:31:21;;;;;;;34.80;22.33;;;;;;;-0.20;93.49;99805.00;2040278;29;20109;-60
2020/12/03 02:32:21;;;;;;;37.13;23.30;;;;;;;-0.19;93.67;99806.72;2039870;28;20043;-60
2020/12/03 02:33:22;;;;;;;36.03;21.77;;;;;;;-0.15;93.40;99803.34;2040271;29;20490;-60
2020/12/03 02:34:22;;;;;;;38.33;22.53;;;;;;;-0.17;93.48;99805.03;2039811;28;20070;-60
2020/12/03 02:35:23;;;;;;;35.67;22.05;;;;;;;-0.18;93.43;99803.31;2039608;29;20077;-60
2020/12/03 02:36:23;;;;;;;35.10;22.77;;;;;;;-0.15;93.06;99803.34;2039939;28;20027;-60
2020/12/03 02:37:23;;;;;;;36.93;22.80;;;;;;;-0.02;92.84;99801.72;2040125;29;20035;-60
2020/12/03 02:38:28;;;;;;;32.20;20.30;;;;;;;-0.09;92.90;99798.25;2039809;28;20503;-60
2020/12/03 02:39:31;;;;;;;33.05;21.00;;;;;;;-0.14;92.80;99799.06;2040001;28;20107;-60
2020/12/03 02:40:31;;;;;;;34.15;21.73;;;;;;;-0.11;92.81;99792.25;2039327;29;20051;-60
2020/12/03 02:41:32;;;;;;;31.27;20.63;;;;;;;-0.17;92.98;99790.50;2040321;28;20125;-60
2020/12/03 02:42:32;;;;;;;34.65;21.80;;;;;;;-0.19;92.98;99789.63;2043327;28;20025;-60
2020/12/03 02:43:32;;;;;;;35.90;22.07;;;;;;;-0.20;92.96;99784.50;2045337;28;20116;-61
2020/12/03 02:44:34;;;;;;;40.73;23.77;;;;;;;-0.22;92.87;99781.94;2039774;29;20031;-60
2020/12/03 02:45:34;;;;;;;36.58;22.35;;;;;;;-0.20;92.98;99785.38;2040006;29;20422;-60
2020/12/03 02:46:34;;;;;;;36.70;22.10;;;;;;;-0.20;92.81;99784.50;2039926;28;20028;-60
2020/12/03 02:47:35;;;;;;;32.63;20.45;;;;;;;-0.20;92.97;99787.06;2040077;29;20122;-62
2020/12/03 02:48:35;;;;;;;37.70;23.40;;;;;;;-0.24;92.99;99785.31;2039876;29;20097;-61
2020/12/03 02:49:40;;;;;;;37.10;23.80;;;;;;;-0.22;93.36;99791.31;2039421;29;20503;-62
2020/12/03 02:50:41;;;;;;;36.67;23.67;;;;;;;-0.23;93.41;99781.91;2039430;29;20103;-61
2020/12/03 02:51:42;;;;;;;37.70;24.03;;;;;;;-0.25;93.30;99781.91;2039904;29;20527;-61
2020/12/03 02:52:42;;;;;;;36.92;24.25;;;;;;;-0.24;93.25;99775.94;2039710;29;20093;-62
2020/12/03 02:53:42;;;;;;;37.07;22.10;;;;;;;-0.24;93.51;99781.06;2040251;29;20035;-61
2020/12/03 02:54:43;;;;;;;38.03;23.80;;;;;;;-0.23;93.53;99779.34;2039997;29;20035;-61
2020/12/03 02:55:43;;;;;;;35.93;22.43;;;;;;;-0.22;93.54;99775.94;2039968;29;20097;-61
2020/12/03 02:56:43;;;;;;;38.33;23.93;;;;;;;-0.22;93.21;99775.94;2039861;29;20042;-61
2020/12/03 02:57:44;;;;;;;40.07;23.93;;;;;;;-0.21;93.08;99777.66;2039233;29;20031;-61
2020/12/03 02:58:44;;;;;;;37.47;23.27;;;;;;;-0.13;92.88;99776.00;2039841;29;20161;-61
2020/12/03 02:59:45;;;;;;;36.80;22.17;;;;;;;-0.19;93.04;99771.69;2039764;29;20058;-61
2020/12/03 03:00:45;;;;;;;36.78;22.80;;;;;;;-0.18;93.05;99777.69;2039659;28;20055;-60
2020/12/03 03:01:46;;;;;;;39.10;23.63;;;;;;;-0.21;93.18;99773.41;2033746;29;20040;-61
2020/12/03 03:02:48;;;;;;;36.57;23.57;;;;;;;-0.22;93.21;99781.06;2036098;29;20610;-61
2020/12/03 03:03:49;;;;;;;39.40;24.05;;;;;;;-0.20;93.23;99776.81;2040058;28;20027;-61
2020/12/03 03:04:49;;;;;;;38.33;23.77;;;;;;;-0.19;93.20;99773.41;2039915;28;20027;-61
2020/12/03 03:05:49;;;;;;;37.27;23.13;;;;;;;-0.19;93.19;99770.84;2039647;29;20032;-61
2020/12/03 03:06:49;;;;;;;34.53;22.77;;;;;;;-0.15;93.21;99772.59;2039946;29;20034;-60
2020/12/03 03:07:52;;;;;;;38.90;23.47;;;;;;;-0.20;93.30;99774.25;2039825;28;20090;-61
2020/12/03 03:08:53;;;;;;;36.25;23.10;;;;;;;-0.20;93.21;99779.38;2039899;29;20112;-60
2020/12/03 03:09:53;;;;;;;36.87;23.50;;;;;;;-0.19;93.28;99770.84;2039611;28;20023;-60
2020/12/03 03:10:53;;;;;;;36.83;23.47;;;;;;;-0.17;93.15;99769.16;2040125;29;20058;-60
2020/12/03 03:11:53;;;;;;;36.90;24.77;;;;;;;-0.18;93.03;99762.31;2039788;28;20498;-60
2020/12/03 03:12:54;;;;;;;36.27;22.13;;;;;;;-0.12;92.92;99764.91;2039330;29;20098;-61
2020/12/03 03:13:54;;;;;;;35.83;23.37;;;;;;;-0.18;92.85;99763.16;2039490;28;20118;-60
2020/12/03 03:14:54;;;;;;;34.53;22.50;;;;;;;-0.18;93.08;99767.44;2039551;29;20039;-60
2020/12/03 03:15:55;;;;;;;39.30;24.60;;;;;;;-0.17;93.13;99761.47;2039448;28;20058;-60
2020/12/03 03:16:56;;;;;;;38.42;23.63;;;;;;;-0.19;93.02;99761.44;2046928;28;20023;-60
2020/12/03 03:17:56;;;;;;;35.00;22.60;;;;;;;-0.19;93.20;99763.16;2046457;28;20031;-60
2020/12/03 03:18:57;;;;;;;35.77;23.43;;;;;;;-0.19;93.37;99756.31;2039168;29;20028;-60
2020/12/03 03:19:57;;;;;;;36.00;23.17;;;;;;;-0.15;93.27;99759.78;2039024;28;20434;-60
2020/12/03 03:20:58;;;;;;;39.07;23.50;;;;;;;-0.17;93.14;99757.19;2039078;29;20054;-60
2020/12/03 03:21:58;;;;;;;37.83;24.20;;;;;;;-0.14;93.12;99761.47;2039369;28;20031;-60
2020/12/03 03:22:58;;;;;;;37.87;23.97;;;;;;;-0.15;92.83;99757.22;2039780;29;20074;-60
2020/12/03 03:23:59;;;;;;;34.80;23.10;;;;;;;-0.11;92.72;99758.94;2039827;28;20385;-60
2020/12/03 03:25:00;;;;;;;38.50;24.48;;;;;;;-0.18;92.96;99763.16;2039845;29;20081;-60
2020/12/03 03:26:00;;;;;;;39.07;24.00;;;;;;;-0.16;93.18;99753.78;2039208;28;20042;-60
2020/12/03 03:27:00;;;;;;;36.63;24.00;;;;;;;-0.18;93.03;99757.19;2035176;28;20039;-60
2020/12/03 03:28:01;;;;;;;40.20;24.67;;;;;;;-0.20;93.05;99756.31;2037552;28;20043;-60
2020/12/03 03:29:01;;;;;;;38.13;23.67;;;;;;;-0.17;93.01;99761.47;2039711;29;20231;-60
2020/12/03 03:30:06;;;;;;;41.87;25.63;;;;;;;-0.14;93.00;99761.47;2039475;29;20048;-60
2020/12/03 03:31:07;;;;;;;41.72;25.85;;;;;;;-0.10;92.93;99760.66;2039742;29;20055;-60
2020/12/03 03:32:07;;;;;;;41.53;26.17;;;;;;;-0.13;92.91;99760.63;2038958;29;20031;-60
2020/12/03 03:33:08;;;;;;;41.03;26.03;;;;;;;-0.18;93.05;99763.16;2037157;29;20112;-60
2020/12/03 03:34:08;;;;;;;40.87;26.20;;;;;;;-0.20;93.22;99758.88;2045207;29;20873;-60
2020/12/03 03:35:09;;;;;;;38.20;25.05;;;;;;;-0.21;93.24;99762.28;2042351;28;20106;-60
2020/12/03 03:36:09;;;;;;;42.83;25.57;;;;;;;-0.19;93.68;99770.84;2031931;29;20032;-61
2020/12/03 03:37:10;;;;;;;41.15;26.50;;;;;;;-0.19;93.43;99768.28;2032150;29;20039;-60
2020/12/03 03:38:10;;;;;;;42.83;26.53;;;;;;;-0.12;93.21;99767.47;2033915;28;20033;-60
2020/12/03 03:39:17;;;;;;;46.60;28.97;;;;;;;-0.12;93.02;99769.19;2039601;29;20122;-60
2020/12/03 03:40:18;;;;;;;45.72;27.63;;;;;;;-0.16;93.11;99768.31;2039776;29;20039;-60
2020/12/03 03:41:19;;;;;;;44.23;27.23;;;;;;;-0.18;93.18;99764.88;2039655;28;20023;-60
2020/12/03 03:42:19;;;;;;;44.85;27.63;;;;;;;-0.11;93.32;99761.50;2039551;29;20085;-60
2020/12/03 03:43:19;;;;;;;44.63;26.83;;;;;;;-0.09;93.14;99761.50;2039775;28;20036;-60
2020/12/03 03:44:20;;;;;;;42.73;26.10;;;;;;;-0.12;93.12;99761.50;2039863;29;20107;-60
2020/12/03 03:45:21;;;;;;;45.28;27.63;;;;;;;-0.16;93.10;99760.63;2039565;28;20028;-60
2020/12/03 03:46:21;;;;;;;45.90;27.63;;;;;;;-0.12;93.11;99757.22;2039812;29;20036;-60
2020/12/03 03:47:22;;;;;;;46.57;28.83;;;;;;;-0.16;93.35;99755.50;2039693;28;20069;-60
2020/12/03 03:48:22;;;;;;;42.57;26.90;;;;;;;-0.17;93.27;99758.91;2039359;29;20040;-61
2020/12/03 03:49:23;;;;;;;44.80;28.33;;;;;;;-0.15;92.90;99752.09;2039397;29;20295;-60
2020/12/03 03:50:23;;;;;;;48.65;29.27;;;;;;;-0.18;93.30;99752.91;2039890;29;20035;-60
2020/12/03 03:51:24;;;;;;;45.00;27.33;;;;;;;-0.18;93.40;99754.63;2039692;28;20109;-60
2020/12/03 03:52:24;;;;;;;49.40;28.17;;;;;;;-0.20;93.34;99753.78;2039576;29;20142;-60
2020/12/03 03:53:25;;;;;;;44.47;27.97;;;;;;;-0.19;93.47;99755.47;2039768;28;20039;-60
2020/12/03 03:54:25;;;;;;;45.67;28.43;;;;;;;-0.19;93.63;99752.91;2039870;29;20020;-60
2020/12/03 03:55:25;;;;;;;43.20;28.53;;;;;;;0.01;92.65;99745.34;2039652;28;20396;-61
2020/12/03 03:56:26;;;;;;;45.63;27.73;;;;;;;-0.13;92.79;99745.25;2039893;29;20059;-61
2020/12/03 03:57:27;;;;;;;43.40;27.37;;;;;;;-0.16;93.22;99740.16;2039680;28;20032;-60
2020/12/03 03:58:27;;;;;;;42.63;27.45;;;;;;;-0.16;92.94;99745.28;2039332;29;20054;-60
2020/12/03 03:59:27;;;;;;;44.83;28.13;;;;;;;-0.17;93.29;99743.56;2039507;28;20027;-60
2020/12/03 04:00:28;;;;;;;45.53;29.43;;;;;;;-0.08;93.29;99741.03;2039846;29;20031;-60
2020/12/03 04:01:28;;;;;;;46.33;28.13;;;;;;;-0.17;93.04;99741.84;2039637;29;20105;-60
2020/12/03 04:02:28;;;;;;;46.77;28.93;;;;;;;-0.12;93.17;99743.56;2039503;29;20035;-60
2020/12/03 04:03:28;;;;;;;45.50;27.27;;;;;;;-0.04;92.76;99740.19;2039452;29;20082;-60
2020/12/03 04:04:29;;;;;;;45.30;28.73;;;;;;;-0.12;92.86;99741.84;2039739;29;20051;-61
2020/12/03 04:05:29;;;;;;;43.87;27.97;;;;;;;-0.13;92.59;99740.13;2039585;28;20034;-61
2020/12/03 04:06:29;;;;;;;45.20;28.77;;;;;;;-0.10;92.71;99747.84;2039693;29;20027;-60
2020/12/03 04:07:30;;;;;;;43.07;26.33;;;;;;;-0.11;92.78;99747.84;2039615;28;20387;-60
2020/12/03 04:08:30;;;;;;;37.93;25.43;;;;;;;-0.03;92.48;99739.34;2032803;29;20027;-60
2020/12/03 04:09:30;;;;;;;42.90;26.47;;;;;;;-0.06;92.36;99734.22;2031582;29;20029;-60
2020/12/03 04:10:31;;;;;;;43.73;26.67;;;;;;;-0.01;92.02;99747.91;2031798;29;20107;-60
2020/12/03 04:11:31;;;;;;;41.57;25.67;;;;;;;0.01;92.22;99740.22;2031726;28;20056;-60
2020/12/03 04:12:31;;;;;;;43.33;26.47;;;;;;;0.10;92.14;99747.94;2031516;29;20028;-60
2020/12/03 04:13:32;;;;;;;40.70;25.23;;;;;;;0.00;92.09;99751.34;2031765;28;20433;-60
2020/12/03 04:14:32;;;;;;;41.40;25.23;;;;;;;0.01;92.05;99747.91;2031662;28;20119;-60
2020/12/03 04:15:33;;;;;;;42.00;26.50;;;;;;;-0.03;91.97;99752.16;2037280;29;20512;-60
2020/12/03 04:16:33;;;;;;;38.33;24.70;;;;;;;0.01;91.89;99755.59;2039544;28;20043;-61
2020/12/03 04:17:36;;;;;;;38.30;24.57;;;;;;;-0.02;92.08;99751.31;2039619;29;20059;-60
2020/12/03 04:18:37;;;;;;;38.20;24.83;;;;;;;0.02;92.00;99753.91;2039368;28;20039;-60
2020/12/03 04:19:38;;;;;;;39.08;25.63;;;;;;;0.03;91.89;99750.50;2039613;29;20028;-60
2020/12/03 04:20:38;;;;;;;40.13;25.63;;;;;;;-0.03;92.10;99749.59;2039437;28;20038;-60
2020/12/03 04:21:38;;;;;;;40.07;26.20;;;;;;;-0.03;91.76;99752.16;2039727;29;20027;-60
2020/12/03 04:22:39;;;;;;;38.33;24.83;;;;;;;-0.01;91.50;99750.47;2039259;28;20381;-60
2020/12/03 04:23:39;;;;;;;41.67;25.97;;;;;;;0.04;91.74;99747.09;2039631;29;20027;-60
2020/12/03 04:24:39;;;;;;;41.60;24.40;;;;;;;0.11;91.30;99753.94;2039361;28;20030;-60
2020/12/03 04:25:39;;;;;;;36.57;24.23;;;;;;;0.11;90.98;99748.81;2039336;29;20466;-60
2020/12/03 04:26:40;;;;;;;39.73;27.07;;;;;;;0.06;91.23;99750.50;2039191;28;20024;-61
2020/12/03 04:27:41;;;;;;;41.50;25.43;;;;;;;0.09;91.26;99735.13;2039693;28;20024;-61
2020/12/03 04:28:41;;;;;;;39.00;25.40;;;;;;;0.09;91.36;99736.00;2039339;28;20086;-60
2020/12/03 04:29:41;;;;;;;39.53;25.73;;;;;;;0.11;91.31;99741.13;2039498;29;20024;-60
2020/12/03 04:30:42;;;;;;;40.95;25.73;;;;;;;0.08;91.26;99739.44;2039229;28;20418;-61
2020/12/03 04:31:44;;;;;;;38.57;26.30;;;;;;;0.06;91.20;99736.00;2039606;29;20027;-61
2020/12/03 04:32:44;;;;;;;41.75;25.15;;;;;;;0.07;91.46;99735.16;2039047;28;20468;-61
2020/12/03 04:33:45;;;;;;;42.38;26.67;;;;;;;0.05;91.59;99736.84;2039537;29;20111;-61
2020/12/03 04:34:45;;;;;;;42.43;25.90;;;;;;;0.10;91.20;99734.28;2039425;28;20051;-61
2020/12/03 04:35:47;;;;;;;39.20;25.00;;;;;;;0.18;90.76;99737.75;2039577;28;20028;-60
2020/12/03 04:36:47;;;;;;;41.85;26.15;;;;;;;0.28;90.28;99734.38;2039372;28;20338;-60
2020/12/03 04:37:48;;;;;;;39.57;25.27;;;;;;;0.24;90.43;99734.34;2039295;29;20035;-60
2020/12/03 04:38:48;;;;;;;39.90;26.67;;;;;;;0.14;90.87;99730.91;2039210;28;20106;-60
2020/12/03 04:39:49;;;;;;;39.33;26.43;;;;;;;0.09;91.29;99730.03;2039502;29;20032;-60
2020/12/03 04:40:53;;;;;;;37.67;25.10;;;;;;;0.13;91.16;99734.31;2039109;29;20062;-60
2020/12/03 04:41:54;;;;;;;38.10;24.80;;;;;;;0.14;91.18;99726.63;2039031;28;20032;-60
2020/12/03 04:42:59;;;;;;;42.70;27.30;;;;;;;0.15;91.10;99728.34;2038681;28;20015;-61